Time;durP1;ratioP1;P1;durP2;ratioP2;P2;SDS_P1;SDS_P2;PMS_P1;PMS_P2;Temp;Humidity;BMP_temperature;BMP_pressure;BME280_temperature;BME280_humidity;BME280_pressure;Samples;Min_cycle;Max_cycle;Signal;HPM_P1;HPM_P2
2023/09/28 00:07:45;;;;;;;3.30;2.40;;;;;;;16.30;76.54;99223.44;7327728;39;20278;31
2023/09/28 00:13:06;;;;;;;3.00;2.70;;;;;;;16.35;77.36;99219.09;7303051;39;20285;31
2023/09/28 00:18:26;;;;;;;3.03;2.73;;;;;;;16.46;76.95;99223.09;7306031;39;20307;31
2023/09/28 00:24:03;;;;;;;4.05;2.95;;;;;;;16.45;77.22;99216.00;7298313;39;20349;31
2023/09/28 00:29:24;;;;;;;4.60;2.60;;;;;;;16.51;77.07;99209.72;7276465;40;20250;31
2023/09/28 00:34:59;;;;;;;6.93;2.87;;;;;;;16.49;76.62;99215.37;7266376;40;20321;31
2023/09/28 00:40:33;;;;;;;2.90;2.60;;;;;;;16.52;76.92;99225.00;7320058;39;20258;31
2023/09/28 00:46:09;;;;;;;3.53;2.53;;;;;;;16.51;77.20;99217.88;7296996;39;20241;31
2023/09/28 00:51:43;;;;;;;3.00;2.70;;;;;;;16.50;76.50;99211.59;7265726;40;20258;31
2023/09/28 00:57:20;;;;;;;3.75;2.70;;;;;;;16.42;77.11;99202.78;7275369;40;20237;31
2023/09/28 01:02:40;;;;;;;2.70;2.40;;;;;;;16.47;77.49;99201.13;7259412;39;20243;31
2023/09/28 01:08:18;;;;;;;4.70;2.70;;;;;;;16.51;77.31;99216.00;7267844;40;20300;31
2023/09/28 01:13:52;;;;;;;4.23;2.70;;;;;;;16.44;77.43;99214.31;7297033;39;20345;31
2023/09/28 01:19:11;;;;;;;4.60;2.80;;;;;;;16.42;77.60;99232.69;7262022;40;20336;31
2023/09/28 01:24:48;;;;;;;5.80;2.97;;;;;;;16.31;78.27;99228.69;7258198;40;20325;31
2023/09/28 01:30:11;;;;;;;3.33;2.73;;;;;;;16.37;78.51;99229.75;7241886;40;20381;31
2023/09/28 01:40:46;;;;;;;5.40;3.20;;;;;;;16.45;78.30;99227.72;7263741;40;20285;31
2023/09/28 01:46:21;;;;;;;4.55;3.50;;;;;;;16.48;78.63;99231.91;7290910;39;20275;31
2023/09/28 01:52:00;;;;;;;4.00;3.60;;;;;;;16.51;78.02;99213.28;7233615;40;20297;31
2023/09/28 01:57:32;;;;;;;5.90;3.00;;;;;;;16.59;77.84;99204.12;7197609;40;20258;31
2023/09/28 02:03:11;;;;;;;3.90;3.30;;;;;;;16.44;78.76;99208.87;7158884;40;20239;31
2023/09/28 02:13:52;;;;;;;8.80;3.55;;;;;;;16.55;80.36;99205.53;7268872;39;20586;31
2023/09/28 02:19:28;;;;;;;5.30;3.30;;;;;;;16.54;79.25;99229.19;7270444;40;20256;31
2023/09/28 02:24:50;;;;;;;6.80;3.07;;;;;;;16.51;79.98;99218.72;7320055;39;20261;31
2023/09/28 02:30:22;;;;;;;5.45;3.65;;;;;;;16.59;79.83;99220.44;7338775;39;20294;31
2023/09/28 02:41:00;;;;;;;4.28;3.62;;;;;;;16.74;79.50;99221.13;7318367;39;20260;31
2023/09/28 02:46:37;;;;;;;5.70;3.60;;;;;;;16.70;80.23;99217.13;7276985;39;20261;31
2023/09/28 02:51:57;;;;;;;5.23;3.90;;;;;;;16.83;79.80;99224.50;7218878;40;20227;31
2023/09/28 02:57:33;;;;;;;5.60;3.53;;;;;;;16.99;79.94;99230.38;7258181;40;20256;31
2023/09/28 03:03:09;;;;;;;4.70;3.50;;;;;;;17.13;79.08;99228.53;7226981;40;20318;31
2023/09/28 03:08:27;;;;;;;5.10;3.30;;;;;;;17.21;78.75;99222.03;7244713;40;20248;31
2023/09/28 03:14:01;;;;;;;3.80;3.40;;;;;;;17.30;79.15;99235.25;7285476;39;20242;31
2023/09/28 03:19:37;;;;;;;5.10;3.45;;;;;;;17.25;79.65;99232.31;7257176;40;20247;31
2023/09/28 03:24:57;;;;;;;4.80;3.55;;;;;;;17.20;79.04;99245.72;7277183;39;20273;31
2023/09/28 03:35:36;;;;;;;6.50;4.10;;;;;;;17.19;79.85;99243.22;7248886;40;20259;31
2023/09/28 03:40:56;;;;;;;5.70;3.60;;;;;;;17.18;79.57;99242.38;7243001;40;20271;31
2023/09/28 03:46:30;;;;;;;5.80;3.50;;;;;;;17.18;79.28;99242.38;7279504;40;20323;31
2023/09/28 03:52:04;;;;;;;8.13;3.70;;;;;;;17.24;79.65;99252.44;7225782;40;20292;31
2023/09/28 03:57:21;;;;;;;5.13;3.40;;;;;;;17.26;78.80;99244.03;7214844;40;20248;31
2023/09/28 04:02:57;;;;;;;4.27;3.40;;;;;;;17.22;79.20;99243.62;7240950;40;20254;31
2023/09/28 04:08:33;;;;;;;4.97;3.20;;;;;;;17.20;78.69;99244.91;7241308;39;20264;31
2023/09/28 04:13:53;;;;;;;4.60;3.30;;;;;;;17.21;79.20;99260.16;7237094;40;20274;31
2023/09/28 04:19:14;;;;;;;3.87;3.40;;;;;;;17.19;78.48;99263.13;7281515;40;20257;31
2023/09/28 04:24:50;;;;;;;4.05;3.42;;;;;;;17.06;79.56;99250.31;7241008;40;20335;31
2023/09/28 04:30:23;;;;;;;5.40;3.60;;;;;;;17.05;79.51;99255.97;7234830;40;20245;31
2023/09/28 04:36:00;;;;;;;4.10;3.70;;;;;;;17.05;79.24;99256.81;7225718;40;20354;31
2023/09/28 04:41:35;;;;;;;5.13;3.70;;;;;;;16.99;78.99;99254.91;7256864;40;20254;31
2023/09/28 04:46:55;;;;;;;5.10;3.60;;;;;;;16.99;79.03;99259.50;7227437;40;20270;31
2023/09/28 04:52:30;;;;;;;5.47;4.17;;;;;;;16.93;79.79;99290.31;7246493;40;20242;31
2023/09/28 04:58:05;;;;;;;5.00;3.80;;;;;;;16.85;79.73;99277.69;7239963;40;20238;31
2023/09/28 05:03:37;;;;;;;5.35;4.00;;;;;;;16.84;79.22;99297.81;7223430;40;20262;31
2023/09/28 05:08:57;;;;;;;4.53;3.80;;;;;;;16.89;79.47;99292.59;7222566;40;20343;31
2023/09/28 05:14:33;;;;;;;5.30;4.20;;;;;;;16.87;79.72;99302.84;7221781;40;20322;31
2023/09/28 05:20:09;;;;;;;5.13;3.83;;;;;;;16.91;79.99;99303.25;7244991;40;20355;31
2023/09/28 05:25:30;;;;;;;6.43;4.17;;;;;;;16.89;79.39;99298.03;7214871;40;20237;31
2023/09/28 05:31:06;;;;;;;5.20;3.90;;;;;;;16.82;80.64;99299.87;7247244;40;20241;31
2023/09/28 05:36:41;;;;;;;4.50;3.80;;;;;;;16.74;79.74;99296.50;7234064;40;20243;31
2023/09/28 05:42:14;;;;;;;7.20;3.95;;;;;;;16.76;80.38;99299.87;7030223;40;20313;31
2023/09/28 05:47:48;;;;;;;5.97;3.90;;;;;;;16.75;79.93;99307.19;7237136;40;20377;31
2023/09/28 05:53:25;;;;;;;4.37;3.60;;;;;;;16.74;79.03;99304.66;7217957;40;21047;31
2023/09/28 05:59:00;;;;;;;5.03;4.03;;;;;;;16.64;80.00;99324.94;7186720;40;20243;31
2023/09/28 06:04:36;;;;;;;6.90;4.37;;;;;;;16.59;79.48;99340.19;7167579;40;20242;31
2023/09/28 06:10:13;;;;;;;4.37;3.90;;;;;;;16.41;80.49;99334.44;7187832;40;20265;31
2023/09/28 06:15:48;;;;;;;7.50;4.00;;;;;;;16.44;80.35;99328.56;7198288;40;20242;31
2023/09/28 06:21:29;;;;;;;4.00;3.60;;;;;;;16.39;80.92;99331.06;7161985;40;20373;31
2023/09/28 06:26:50;;;;;;;3.90;3.45;;;;;;;16.45;79.47;99352.87;7187794;40;21297;31
2023/09/28 06:32:10;;;;;;;4.33;3.50;;;;;;;16.49;79.80;99343.28;7224571;40;20408;31
2023/09/28 06:37:47;;;;;;;4.17;3.47;;;;;;;16.49;80.18;99348.72;7241755;40;20263;31
2023/09/28 06:43:07;;;;;;;4.00;3.60;;;;;;;16.59;80.24;99364.69;7221816;40;20279;31
2023/09/28 06:53:49;;;;;;;4.20;3.50;;;;;;;16.75;80.56;99385.31;7229682;40;20346;31
2023/09/28 06:59:24;;;;;;;5.17;3.27;;;;;;;16.88;80.44;99386.22;7292590;39;20240;31
2023/09/28 07:05:00;;;;;;;5.10;3.50;;;;;;;17.08;79.97;99392.56;7305781;39;20240;31
2023/09/28 07:10:37;;;;;;;5.93;3.70;;;;;;;17.25;81.02;99382.16;7321820;39;20238;31
2023/09/28 07:16:16;;;;;;;6.03;3.50;;;;;;;17.49;79.55;99386.19;7257447;40;20343;31
2023/09/28 07:21:36;;;;;;;4.40;3.40;;;;;;;17.71;79.03;99382.28;7216146;40;20372;31
2023/09/28 07:27:12;;;;;;;5.87;3.30;;;;;;;17.89;78.89;99374.34;7219015;40;20258;31
2023/09/28 07:32:49;;;;;;;4.07;3.35;;;;;;;18.09;77.62;99370.75;7236023;40;20264;31
2023/09/28 07:43:29;;;;;;;5.20;3.10;;;;;;;18.40;76.66;99370.94;7266282;39;20843;31
2023/09/28 07:53:53;;;;;;;5.13;3.57;;;;;;;18.80;75.74;99399.84;7308482;39;21093;31
2023/09/28 07:59:27;;;;;;;4.10;3.20;;;;;;;18.92;74.88;99403.59;7282212;40;20389;31
2023/09/28 08:05:05;;;;;;;6.10;3.20;;;;;;;19.11;75.39;99407.31;7269358;39;20241;31
2023/09/28 08:10:42;;;;;;;7.53;3.40;;;;;;;19.29;73.51;99384.75;7259252;40;20261;31
2023/09/28 08:16:23;;;;;;;5.87;3.17;;;;;;;19.47;72.53;99387.62;7321758;40;20249;31
2023/09/28 08:21:58;;;;;;;6.15;3.00;;;;;;;19.77;71.28;99385.13;7270758;39;20265;31
2023/09/28 08:32:44;;;;;;;4.65;2.70;;;;;;;20.16;69.13;99384.81;7284221;39;22091;31
2023/09/28 08:38:20;;;;;;;5.55;3.20;;;;;;;20.28;69.69;99404.06;7261932;40;20619;31
2023/09/28 08:43:56;;;;;;;4.55;3.00;;;;;;;20.39;69.14;99400.63;7277956;39;20342;31
2023/09/28 08:54:37;;;;;;;4.13;3.10;;;;;;;20.63;69.25;99412.59;7312869;39;20271;31
2023/09/28 09:00:14;;;;;;;4.60;2.90;;;;;;;20.86;69.36;99420.16;7279837;40;20338;31
2023/09/28 09:05:52;;;;;;;3.55;2.65;;;;;;;21.04;67.49;99429.25;7202192;40;20237;31
2023/09/28 09:11:29;;;;;;;6.53;3.28;;;;;;;21.24;66.27;99430.97;7207017;40;20341;31
2023/09/28 09:17:06;;;;;;;3.05;2.70;;;;;;;21.45;65.89;99416.75;7221905;40;20260;31
2023/09/28 09:22:40;;;;;;;4.35;3.00;;;;;;;21.58;65.47;99416.56;7130058;40;20347;31
2023/09/28 09:28:14;;;;;;;4.75;2.55;;;;;;;21.70;64.86;99411.97;7247190;40;20318;31
2023/09/28 09:33:51;;;;;;;7.25;2.90;;;;;;;21.84;63.77;99410.69;7235513;40;20237;31
2023/09/28 09:39:50;;;;;;;4.00;2.85;;;;;;;21.98;64.52;99400.41;7183781;40;20323;31
2023/09/28 09:50:35;;;;;;;5.25;3.30;;;;;;;22.08;63.12;99391.56;7235836;40;20288;31
2023/09/28 10:01:16;;;;;;;5.60;3.17;;;;;;;22.44;61.34;99394.09;7306508;39;20259;31
2023/09/28 10:06:56;;;;;;;4.07;2.80;;;;;;;22.54;60.59;99390.75;7283680;40;20271;31
2023/09/28 10:12:31;;;;;;;7.03;3.10;;;;;;;22.67;60.65;99383.13;7305349;39;20241;31
2023/09/28 10:18:06;;;;;;;6.10;2.70;;;;;;;22.91;59.04;99390.28;7294618;39;20381;31
2023/09/28 10:23:42;;;;;;;3.50;2.80;;;;;;;22.96;58.88;99406.03;7241385;40;20245;31
2023/09/28 10:39:48;;;;;;;3.85;2.80;;;;;;;23.58;59.29;99390.59;7288600;39;20533;31
2023/09/28 10:45:25;;;;;;;4.30;2.52;;;;;;;23.85;57.63;99398.22;7338129;39;20240;31
2023/09/28 10:56:31;;;;;;;4.20;2.85;;;;;;;24.20;56.86;99396.97;7301028;40;20236;31
2023/09/28 11:02:12;;;;;;;3.33;2.57;;;;;;;24.43;57.14;99406.16;7267243;40;20272;31
2023/09/28 11:07:48;;;;;;;4.82;2.90;;;;;;;24.66;57.17;99417.00;7267424;40;20437;31
2023/09/28 11:13:26;;;;;;;3.16;2.80;;;;;;;24.78;56.75;99414.97;7226702;40;20318;31
2023/09/28 11:24:06;;;;;;;6.95;3.35;;;;;;;25.00;54.95;99393.81;7265317;40;20299;31
2023/09/28 11:29:39;;;;;;;4.87;3.50;;;;;;;25.12;56.36;99390.91;7296232;39;20256;31
2023/09/28 11:35:13;;;;;;;4.45;3.20;;;;;;;25.35;54.45;99378.78;7308156;39;20359;31
2023/09/28 11:40:50;;;;;;;4.30;3.50;;;;;;;25.46;54.44;99386.06;7277865;40;20435;31
2023/09/28 11:46:39;;;;;;;3.60;3.20;;;;;;;25.46;53.91;99370.34;7247615;40;20248;31
2023/09/28 11:57:30;;;;;;;;;;;;;;;;;;;;;
2023/09/28 12:02:50;;;;;;;4.80;2.92;;;;;;;25.88;53.74;99373.31;7263682;40;20238;31
2023/09/28 12:08:25;;;;;;;5.65;3.08;;;;;;;26.06;53.68;99362.97;7282749;39;21084;31
2023/09/28 12:13:47;;;;;;;4.62;3.20;;;;;;;26.13;53.20;99355.28;7258378;40;20241;31
2023/09/28 12:19:27;;;;;;;4.20;3.24;;;;;;;26.08;53.39;99345.03;7251893;40;20273;31
2023/09/28 12:24:52;;;;;;;4.95;3.20;;;;;;;26.29;52.73;99340.50;7275170;39;20240;31
2023/09/28 12:30:32;;;;;;;4.80;3.00;;;;;;;26.09;52.46;99329.28;7330707;39;21072;31
2023/09/28 12:35:53;;;;;;;3.67;2.70;;;;;;;26.27;53.45;99326.16;7120580;39;20226;31
2023/09/28 12:41:28;;;;;;;6.82;2.92;;;;;;;26.28;52.80;99325.88;7307704;39;20450;31
2023/09/28 12:47:06;;;;;;;6.10;3.00;;;;;;;26.26;52.11;99325.31;7308341;39;20241;31
2023/09/28 12:52:28;;;;;;;5.70;3.10;;;;;;;26.23;52.48;99319.47;7232765;40;20269;31
2023/09/28 13:03:13;;;;;;;3.95;3.10;;;;;;;26.35;51.15;99309.06;7237894;40;21049;31
2023/09/28 13:08:33;;;;;;;3.65;2.72;;;;;;;26.54;49.83;99318.59;7158735;40;20315;31
2023/09/28 13:14:07;;;;;;;4.80;2.87;;;;;;;26.70;50.31;99309.28;7279277;39;20267;31
2023/09/28 13:19:44;;;;;;;4.27;2.80;;;;;;;26.68;50.06;99303.16;7240422;40;20339;31
2023/09/28 13:25:18;;;;;;;3.30;2.60;;;;;;;26.45;49.95;99300.84;7198941;40;20250;31
2023/09/28 13:30:57;;;;;;;5.37;3.08;;;;;;;26.43;50.29;99291.97;7180783;40;20250;31
2023/09/28 13:36:30;;;;;;;5.40;2.90;;;;;;;26.63;50.01;99286.56;7133911;40;20243;31
2023/09/28 13:41:52;;;;;;;4.48;2.80;;;;;;;26.78;48.75;99274.72;7147585;40;20314;31
2023/09/28 13:47:25;;;;;;;3.26;2.62;;;;;;;26.80;49.87;99281.66;7228245;40;20263;31
2023/09/28 13:52:59;;;;;;;5.28;2.95;;;;;;;26.84;49.03;99279.19;7183625;40;20245;31
2023/09/28 13:58:35;;;;;;;5.00;2.58;;;;;;;26.84;48.91;99281.94;7219750;40;20264;31
2023/09/28 14:03:55;;;;;;;4.95;2.92;;;;;;;26.67;49.10;99275.78;7230219;40;20273;31
2023/09/28 14:09:33;;;;;;;9.68;2.90;;;;;;;26.69;49.66;99279.09;7285893;39;21148;31
2023/09/28 14:20:15;;;;;;;5.20;2.90;;;;;;;26.52;49.98;99284.00;7272998;39;20268;31
2023/09/28 14:31:09;;;;;;;4.95;2.90;;;;;;;26.43;50.38;99270.69;7302926;39;20255;31
2023/09/28 14:36:44;;;;;;;4.40;2.45;;;;;;;26.45;49.55;99268.50;7276844;40;20269;31
2023/09/28 14:42:04;;;;;;;4.30;2.90;;;;;;;26.46;50.36;99263.78;7251081;40;20252;31
2023/09/28 14:47:39;;;;;;;4.50;2.50;;;;;;;26.36;49.71;99247.97;7228185;40;21283;31
2023/09/28 14:53:16;;;;;;;5.45;3.12;;;;;;;26.31;49.94;99242.44;7232125;40;20283;31
2023/09/28 15:03:54;;;;;;;3.60;2.60;;;;;;;26.39;49.22;99230.00;7272614;40;20280;31
2023/09/28 15:14:18;;;;;;;3.90;2.40;;;;;;;26.34;50.04;99238.28;7295076;40;21135;31
2023/09/28 15:24:58;;;;;;;4.40;2.55;;;;;;;26.10;49.87;99240.59;7319816;39;20309;31
2023/09/28 15:35:36;;;;;;;3.65;2.80;;;;;;;25.96;50.13;99231.13;7347207;39;20263;31
2023/09/28 15:46:14;;;;;;;3.60;2.50;;;;;;;25.88;51.41;99239.91;7352437;39;20275;31
2023/09/28 15:56:38;;;;;;;3.40;2.30;;;;;;;25.84;52.06;99250.66;7327890;39;20271;31
2023/09/28 16:02:06;;;;;;;5.35;2.90;;;;;;;25.68;52.97;99253.53;7342518;39;20251;31
2023/09/28 16:07:42;;;;;;;3.60;3.20;;;;;;;25.53;52.90;99255.09;7332180;39;20355;31
2023/09/28 16:13:17;;;;;;;5.20;2.85;;;;;;;25.35;54.06;99262.88;7338919;39;20356;31
2023/09/28 16:18:52;;;;;;;8.53;3.30;;;;;;;25.27;55.36;99255.06;7318710;39;20422;31
2023/09/28 16:24:28;;;;;;;5.65;3.10;;;;;;;25.25;55.52;99249.78;7259381;40;20245;31
2023/09/28 16:29:48;;;;;;;4.00;2.75;;;;;;;25.17;57.22;99260.47;7277255;39;20441;31
2023/09/28 16:35:25;;;;;;;6.40;3.15;;;;;;;25.02;56.52;99258.38;7310178;39;20249;31
2023/09/28 16:41:01;;;;;;;4.88;2.90;;;;;;;24.87;58.34;99264.56;7270692;40;20281;31
2023/09/28 16:46:34;;;;;;;6.05;3.25;;;;;;;24.67;60.49;99261.50;7213457;40;20324;31
2023/09/28 16:57:16;;;;;;;3.35;3.00;;;;;;;24.18;62.64;99261.37;7254416;40;20273;31
2023/09/28 17:07:59;;;;;;;4.30;3.00;;;;;;;23.77;63.89;99253.56;7289355;40;21102;31
2023/09/28 17:13:36;;;;;;;3.58;3.00;;;;;;;23.61;63.14;99259.88;7236292;40;20324;31
2023/09/28 17:19:08;;;;;;;5.40;3.05;;;;;;;23.38;64.83;99251.75;7233831;40;20876;31
2023/09/28 17:24:28;;;;;;;4.55;3.30;;;;;;;23.20;64.46;99252.81;7238089;40;20575;31
2023/09/28 17:30:04;;;;;;;5.12;3.20;;;;;;;23.01;65.49;99271.44;7219251;40;20421;31
2023/09/28 17:35:39;;;;;;;4.55;2.92;;;;;;;22.79;65.39;99276.75;7217354;40;20341;31
2023/09/28 17:41:00;;;;;;;2.80;2.50;;;;;;;22.72;64.59;99286.22;7234368;39;20259;31
2023/09/28 17:46:35;;;;;;;4.22;3.17;;;;;;;22.55;66.16;99283.38;7306755;39;20566;31
2023/09/28 17:52:09;;;;;;;3.90;3.20;;;;;;;22.40;66.33;99286.63;7284571;39;20264;31
2023/09/28 17:57:43;;;;;;;4.82;3.38;;;;;;;22.37;66.31;99298.09;7238690;40;20447;31
2023/09/28 18:03:17;;;;;;;3.90;2.90;;;;;;;22.22;66.26;99297.72;7191298;40;20238;31
2023/09/28 18:08:54;;;;;;;4.65;2.60;;;;;;;22.18;65.89;99304.78;7179045;40;20361;31
2023/09/28 18:14:29;;;;;;;5.05;3.50;;;;;;;22.10;66.50;99302.41;7178535;40;20254;31
2023/09/28 18:20:05;;;;;;;3.50;3.17;;;;;;;21.93;67.20;99313.25;7154838;40;20257;31
2023/09/28 18:25:26;;;;;;;7.15;2.90;;;;;;;21.82;67.27;99318.69;7167934;40;20273;31
2023/09/28 18:30:44;;;;;;;3.70;2.90;;;;;;;21.72;67.86;99319.25;7232873;40;20473;31
2023/09/28 18:36:17;;;;;;;7.56;3.44;;;;;;;21.55;68.10;99323.75;7252461;40;20236;31
2023/09/28 18:41:52;;;;;;;6.70;3.40;;;;;;;21.33;69.23;99333.56;7328649;39;20256;31
2023/09/28 18:47:13;;;;;;;4.45;3.30;;;;;;;21.20;69.18;99329.09;7302038;39;20263;31
2023/09/28 18:52:43;;;;;;;4.47;3.00;;;;;;;21.18;68.44;99333.16;7319481;39;20240;31
2023/09/28 18:58:17;;;;;;;5.60;3.30;;;;;;;21.17;68.69;99337.81;7279161;40;20259;31
2023/09/28 19:03:37;;;;;;;4.72;3.37;;;;;;;21.10;69.29;99345.25;7283304;40;20273;31
2023/09/28 19:09:16;;;;;;;5.12;3.30;;;;;;;21.04;69.72;99335.22;7273028;39;20241;31
2023/09/28 19:14:49;;;;;;;5.72;3.33;;;;;;;20.94;69.26;99340.38;7261865;40;20245;31
2023/09/28 19:20:31;;;;;;;5.00;3.17;;;;;;;20.91;69.11;99349.06;7272009;40;20291;31
2023/09/28 19:26:06;;;;;;;4.50;3.20;;;;;;;20.60;69.94;99348.16;7103047;39;20479;31
2023/09/28 19:31:23;;;;;;;3.90;3.00;;;;;;;20.69;70.48;99354.19;7207463;40;20351;31
2023/09/28 19:42:04;;;;;;;4.53;3.42;;;;;;;20.63;70.86;99355.94;7205878;40;20258;31
2023/09/28 19:47:39;;;;;;;4.20;3.40;;;;;;;20.48;71.18;99357.38;7235383;40;20306;31
2023/09/28 19:53:00;;;;;;;4.22;3.22;;;;;;;20.31;71.93;99353.53;7198478;40;20242;31
2023/09/28 19:58:39;;;;;;;5.83;3.27;;;;;;;20.14;73.13;99345.03;7219363;40;20262;31
2023/09/28 20:04:11;;;;;;;4.97;3.10;;;;;;;19.94;73.41;99356.16;7237809;40;20407;31
2023/09/28 20:09:32;;;;;;;6.10;3.37;;;;;;;19.96;72.29;99362.25;7238757;40;20369;31
2023/09/28 20:15:09;;;;;;;4.40;3.92;;;;;;;19.93;73.20;99354.47;7279383;40;20453;31
2023/09/28 20:20:29;;;;;;;4.40;3.40;;;;;;;19.94;71.84;99356.16;7311781;39;20252;31
2023/09/28 20:26:04;;;;;;;5.40;3.60;;;;;;;19.95;72.31;99359.72;7381082;39;20313;31
2023/09/28 20:31:40;;;;;;;4.90;3.50;;;;;;;19.78;72.64;99351.22;7261236;40;20241;31
2023/09/28 20:37:15;;;;;;;5.10;3.73;;;;;;;19.71;72.78;99347.69;7234420;40;20297;31
2023/09/28 20:47:55;;;;;;;3.90;3.40;;;;;;;19.64;72.97;99355.97;7269458;40;21267;31
2023/09/28 20:53:30;;;;;;;4.83;2.90;;;;;;;19.56;73.33;99361.69;7225514;40;20378;31
2023/09/28 20:59:05;;;;;;;4.55;3.40;;;;;;;19.49;74.12;99363.63;7208015;40;20250;31
2023/09/28 21:04:41;;;;;;;7.50;4.20;;;;;;;19.40;73.64;99367.63;7235596;40;20270;31
2023/09/28 21:10:17;;;;;;;6.10;3.42;;;;;;;19.44;74.09;99362.63;7175624;40;20273;31
2023/09/28 21:20:58;;;;;;;6.32;3.70;;;;;;;19.40;73.62;99361.31;7266136;40;20269;31
2023/09/28 21:31:38;;;;;;;7.25;3.15;;;;;;;19.52;73.08;99359.63;7352144;39;20272;31
2023/09/28 21:37:16;;;;;;;6.20;3.60;;;;;;;19.27;74.85;99348.56;7322402;39;21229;31
2023/09/28 21:47:40;;;;;;;4.17;3.17;;;;;;;19.37;74.63;99352.53;7280533;40;21144;31
2023/09/28 21:58:22;;;;;;;4.45;3.28;;;;;;;19.54;74.30;99332.88;7313032;39;20378;31
2023/09/28 22:03:40;;;;;;;7.43;3.50;;;;;;;19.42;74.27;99342.81;7299408;39;20312;31
2023/09/28 22:08:59;;;;;;;7.45;4.00;;;;;;;19.30;74.43;99343.53;7320979;39;20363;31
2023/09/28 22:14:36;;;;;;;8.65;4.35;;;;;;;19.24;75.43;99338.09;7343155;39;20366;31
2023/09/28 22:20:12;;;;;;;4.70;3.60;;;;;;;19.31;75.19;99341.62;7264103;40;20316;31
2023/09/28 22:25:31;;;;;;;5.60;4.00;;;;;;;19.38;74.24;99339.69;7205907;40;21514;31
2023/09/28 22:31:08;;;;;;;3.90;3.30;;;;;;;19.20;74.22;99334.12;7245956;40;20537;31
2023/09/28 22:41:48;;;;;;;6.05;3.40;;;;;;;19.13;73.76;99341.53;7280271;39;20268;31
2023/09/28 22:47:37;;;;;;;3.90;3.40;;;;;;;18.89;75.04;99345.84;7238710;40;20374;31
2023/09/28 22:52:45;;;;;;;5.03;3.90;;;;;;;18.89;74.42;99348.56;7294689;39;20356;31
2023/09/28 22:58:21;;;;;;;6.40;3.80;;;;;;;18.76;74.18;99354.91;7319978;39;20244;31
2023/09/28 23:03:56;;;;;;;5.20;3.40;;;;;;;18.73;75.61;99354.53;7306411;39;20260;31
2023/09/28 23:14:37;;;;;;;7.23;3.97;;;;;;;18.37;75.81;99355.84;7299005;40;20271;31
2023/09/28 23:20:13;;;;;;;6.50;3.80;;;;;;;18.33;75.80;99351.84;7334164;39;20239;31
2023/09/28 23:25:36;;;;;;;7.10;3.50;;;;;;;18.24;75.80;99355.00;7298541;39;20256;31
2023/09/28 23:31:11;;;;;;;7.97;3.50;;;;;;;18.27;75.63;99357.31;7261544;40;20970;31
2023/09/28 23:36:45;;;;;;;4.33;3.40;;;;;;;18.31;76.35;99355.84;7225177;40;20331;31
2023/09/28 23:47:22;;;;;;;4.47;3.30;;;;;;;18.17;75.60;99344.09;7269260;40;21373;31
2023/09/28 23:52:57;;;;;;;6.00;3.50;;;;;;;18.26;75.14;99336.53;7249989;39;20336;31
